Time;durP1;ratioP1;P1;durP2;ratioP2;P2;SDS_P1;SDS_P2;PMS_P1;PMS_P2;Temp;Humidity;BMP_temperature;BMP_pressure;BME280_temperature;BME280_humidity;BME280_pressure;Samples;Min_cycle;Max_cycle;Signal;HPM_P1;HPM_P2
2022/11/17 00:00:06;;;;;;;1.00;1.00;;;;;;;6.73;92.13;93879.59;4369950;32;20272;-63
2022/11/17 00:02:33;;;;;;;0.27;0.27;;;;;;;6.75;91.97;93880.06;4370431;32;20192;-60
2022/11/17 00:04:59;;;;;;;0.93;0.50;;;;;;;6.60;92.62;93866.50;4342866;32;20277;-60
2022/11/17 00:07:24;;;;;;;0.20;0.20;;;;;;;6.37;92.97;93857.87;4370351;32;20342;-60
2022/11/17 00:09:51;;;;;;;0.73;0.73;;;;;;;6.54;93.16;93864.00;4360893;32;20384;-60
2022/11/17 00:15:07;;;;;;;0.40;0.40;;;;;;;6.58;92.99;93872.09;4362987;32;20330;-62
2022/11/17 00:17:34;;;;;;;0.53;0.53;;;;;;;6.64;92.35;93867.47;4363738;32;20292;-61
2022/11/17 00:22:44;;;;;;;0.50;0.50;;;;;;;6.38;92.71;93875.25;4358172;32;20315;-60
2022/11/17 00:25:11;;;;;;;0.43;0.43;;;;;;;6.49;92.46;93863.34;4348613;32;20317;-60
2022/11/17 00:27:38;;;;;;;1.30;0.87;;;;;;;6.35;92.49;93866.09;4359577;32;20196;-60
2022/11/17 00:30:07;;;;;;;0.30;0.30;;;;;;;6.47;92.67;93866.28;4366444;32;20358;-60
2022/11/17 00:35:19;;;;;;;0.63;0.40;;;;;;;6.62;92.14;93865.13;4345363;32;20373;-60
2022/11/17 00:40:34;;;;;;;0.20;0.20;;;;;;;6.31;93.12;93856.47;4330236;32;20300;-60
2022/11/17 00:43:00;;;;;;;0.50;0.50;;;;;;;6.45;93.27;93857.13;4345582;32;20323;-60
2022/11/17 00:45:27;;;;;;;0.63;0.63;;;;;;;6.47;92.86;93858.37;4363698;32;20401;-60
2022/11/17 00:47:53;;;;;;;0.30;0.30;;;;;;;6.63;92.52;93850.87;4335897;32;20368;-60
2022/11/17 00:50:22;;;;;;;0.30;0.30;;;;;;;6.50;92.56;93854.38;4355510;32;20323;-60
2022/11/17 00:52:49;;;;;;;0.10;0.10;;;;;;;6.62;92.55;93856.47;4358594;32;20280;-60
2022/11/17 00:55:16;;;;;;;0.10;0.10;;;;;;;6.68;92.11;93852.59;4347516;32;20322;-60
2022/11/17 00:57:43;;;;;;;0.20;0.20;;;;;;;6.49;92.11;93845.69;4352561;32;20251;-60
2022/11/17 01:00:10;;;;;;;0.17;0.17;;;;;;;6.58;92.36;93850.22;4355516;32;20293;-60
2022/11/17 01:02:36;;;;;;;0.17;0.17;;;;;;;6.57;92.57;93852.09;4350266;32;20306;-61
2022/11/17 01:05:01;;;;;;;0.20;0.20;;;;;;;6.50;92.30;93843.84;4343867;32;20284;-60
2022/11/17 01:07:26;;;;;;;0.20;0.20;;;;;;;6.70;91.79;93858.31;4355241;32;20243;-60
2022/11/17 01:09:53;;;;;;;0.63;0.63;;;;;;;6.68;91.92;93856.00;4363981;32;20275;-60
2022/11/17 01:12:20;;;;;;;0.40;0.40;;;;;;;6.58;91.85;93851.00;4349438;32;20192;-60
2022/11/17 01:14:47;;;;;;;0.60;0.60;;;;;;;6.69;92.11;93848.88;4347507;32;20281;-60
2022/11/17 01:17:13;;;;;;;0.07;0.07;;;;;;;6.75;92.09;93848.44;4347775;32;20296;-60
2022/11/17 01:19:40;;;;;;;0.10;0.10;;;;;;;6.82;91.48;93845.38;4326425;32;20316;-60
2022/11/17 01:22:07;;;;;;;1.37;0.47;;;;;;;6.80;91.83;93845.66;4347711;32;20301;-61
2022/11/17 01:24:38;;;;;;;0.53;0.33;;;;;;;6.97;91.16;93846.78;4353586;32;20277;-61
2022/11/17 01:27:03;;;;;;;0.83;0.63;;;;;;;7.04;90.49;93841.84;4344047;32;20268;-60
2022/11/17 01:29:32;;;;;;;0.10;0.10;;;;;;;7.18;89.91;93847.75;4358547;32;20290;-60
2022/11/17 01:31:58;;;;;;;0.50;0.40;;;;;;;7.05;89.90;93851.31;4342612;32;20285;-60
2022/11/17 01:34:26;;;;;;;0.10;0.10;;;;;;;6.90;90.62;93848.00;4319657;32;20707;-60
2022/11/17 01:39:38;;;;;;;0.10;0.10;;;;;;;6.94;90.66;93845.53;4355494;32;20314;-60
2022/11/17 01:42:12;;;;;;;0.30;0.30;;;;;;;6.93;91.29;93853.75;4352685;32;20326;-60
2022/11/17 01:44:56;;;;;;;0.07;0.07;;;;;;;6.99;90.86;93858.59;4340115;32;20281;-60
2022/11/17 01:47:59;;;;;;;0.20;0.20;;;;;;;6.98;91.02;93858.88;4350313;32;20339;-60
2022/11/17 01:50:34;;;;;;;0.20;0.20;;;;;;;6.75;91.75;93866.88;4303442;32;20277;-60
2022/11/17 01:53:03;;;;;;;1.30;0.67;;;;;;;6.69;91.82;93854.91;4370095;32;20578;-60
2022/11/17 01:55:34;;;;;;;0.60;0.30;;;;;;;6.74;92.05;93849.50;4345309;32;20328;-60
2022/11/17 01:58:07;;;;;;;0.10;0.10;;;;;;;6.76;91.96;93855.25;4336227;32;20281;-60
2022/11/17 02:00:34;;;;;;;0.10;0.10;;;;;;;6.64;92.14;93843.75;4319233;32;20285;-61
2022/11/17 02:03:01;;;;;;;0.10;0.10;;;;;;;6.83;91.67;93842.44;4354613;32;20285;-60
2022/11/17 02:05:38;;;;;;;0.67;0.53;;;;;;;6.70;92.15;93832.75;4324486;32;20277;-60
2022/11/17 02:08:05;;;;;;;0.10;0.10;;;;;;;6.73;92.06;93824.25;4322761;32;20299;-61
2022/11/17 02:10:35;;;;;;;0.33;0.33;;;;;;;6.74;91.65;93822.38;4343667;32;20290;-60
2022/11/17 02:13:04;;;;;;;0.00;0.00;;;;;;;6.98;91.12;93811.44;4332335;32;20288;-60
2022/11/17 02:15:30;;;;;;;0.00;0.00;;;;;;;7.06;90.61;93816.75;4332958;32;20303;-61
2022/11/17 02:18:02;;;;;;;0.20;0.20;;;;;;;7.22;90.06;93824.97;4358710;32;20384;-60
2022/11/17 02:20:50;;;;;;;0.23;0.23;;;;;;;7.07;90.68;93825.41;4345523;32;20397;-60
2022/11/17 02:23:46;;;;;;;0.70;0.40;;;;;;;6.92;91.50;93820.56;4329339;32;20304;-60
2022/11/17 02:26:40;;;;;;;0.30;0.30;;;;;;;7.02;91.58;93793.94;4351650;32;20354;-60
2022/11/17 02:29:06;;;;;;;0.00;0.00;;;;;;;6.89;91.56;93793.75;4367106;32;20274;-60
2022/11/17 02:32:00;;;;;;;0.00;0.00;;;;;;;7.00;91.52;93790.81;4350040;32;20296;-60
2022/11/17 02:34:34;;;;;;;0.10;0.10;;;;;;;7.16;90.33;93794.56;4368440;32;20193;-60
2022/11/17 02:37:10;;;;;;;0.40;0.23;;;;;;;6.74;92.10;93796.03;4376182;32;20336;-61
2022/11/17 02:39:43;;;;;;;0.37;0.30;;;;;;;6.76;92.74;93775.44;4368960;32;20272;-60
2022/11/17 02:42:13;;;;;;;0.00;0.00;;;;;;;6.88;92.30;93770.31;4377117;32;20345;-61
2022/11/17 02:44:54;;;;;;;0.13;0.13;;;;;;;7.16;91.32;93771.59;4375642;32;20308;-61
2022/11/17 02:47:27;;;;;;;0.20;0.20;;;;;;;7.11;91.47;93774.37;4371764;32;20319;-61
2022/11/17 02:50:00;;;;;;;0.10;0.10;;;;;;;7.24;90.81;93770.84;4375927;32;20359;-60
2022/11/17 02:52:26;;;;;;;0.10;0.10;;;;;;;7.36;90.28;93770.22;4386443;32;20295;-61
2022/11/17 02:54:52;;;;;;;0.03;0.03;;;;;;;7.23;91.24;93760.59;4369878;32;20312;-61
2022/11/17 02:57:31;;;;;;;0.20;0.20;;;;;;;7.15;91.33;93762.12;4369134;32;20273;-60
2022/11/17 03:00:13;;;;;;;0.10;0.10;;;;;;;7.35;90.91;93752.06;4379281;32;20238;-60
2022/11/17 03:03:06;;;;;;;0.00;0.00;;;;;;;7.26;91.41;93748.66;4374844;32;20306;-60
2022/11/17 03:05:47;;;;;;;0.20;0.20;;;;;;;7.45;90.74;93735.91;4374422;32;20295;-60
2022/11/17 03:08:41;;;;;;;0.20;0.20;;;;;;;7.57;90.14;93744.75;4382801;32;20298;-60
2022/11/17 03:11:07;;;;;;;0.20;0.20;;;;;;;7.59;89.44;93737.28;4379719;32;20293;-61
2022/11/17 03:13:49;;;;;;;0.30;0.30;;;;;;;7.50;90.37;93744.44;4387262;32;20286;-61
2022/11/17 03:16:17;;;;;;;0.00;0.00;;;;;;;7.39;90.80;93740.56;4370003;32;20288;-61
2022/11/17 03:19:09;;;;;;;0.20;0.10;;;;;;;7.37;91.33;93734.06;4370998;32;20304;-60
2022/11/17 03:21:43;;;;;;;0.10;0.10;;;;;;;7.49;90.89;93728.91;4385244;32;20306;-61
2022/11/17 03:24:22;;;;;;;0.67;0.27;;;;;;;7.30;91.40;93712.63;4374096;32;20300;-61
2022/11/17 03:26:54;;;;;;;0.20;0.20;;;;;;;7.24;92.06;93714.69;4370587;32;20276;-60
2022/11/17 03:29:23;;;;;;;0.10;0.10;;;;;;;7.30;91.54;93717.91;4382424;32;20275;-60
2022/11/17 03:31:55;;;;;;;0.00;0.00;;;;;;;7.18;91.76;93708.00;4388312;32;20293;-60
2022/11/17 03:34:23;;;;;;;0.10;0.10;;;;;;;6.81;93.40;93723.34;4375950;32;20281;-60
2022/11/17 03:36:54;;;;;;;0.00;0.00;;;;;;;6.62;94.44;93714.97;4370768;32;20281;-60
2022/11/17 03:39:32;;;;;;;0.30;0.30;;;;;;;6.66;94.36;93713.25;4373272;32;20295;-60
2022/11/17 03:42:13;;;;;;;0.00;0.00;;;;;;;6.82;94.14;93710.97;4378910;32;20310;-61
2022/11/17 03:44:41;;;;;;;0.20;0.20;;;;;;;6.84;93.64;93706.16;4376615;32;20281;-60
2022/11/17 03:47:10;;;;;;;0.20;0.20;;;;;;;7.02;93.21;93699.81;4379210;32;20291;-60
2022/11/17 03:49:50;;;;;;;0.10;0.10;;;;;;;6.67;93.86;93701.62;4385964;32;20323;-60
2022/11/17 03:52:16;;;;;;;0.10;0.10;;;;;;;6.68;94.48;93705.81;4385503;32;20295;-60
2022/11/17 03:54:42;;;;;;;0.13;0.13;;;;;;;6.73;94.38;93705.66;4375500;32;20418;-60
2022/11/17 03:57:23;;;;;;;0.03;0.03;;;;;;;6.65;94.64;93698.50;4381524;32;20280;-60
2022/11/17 03:59:59;;;;;;;0.00;0.00;;;;;;;6.59;95.04;93694.50;4371320;32;20198;-60
2022/11/17 04:02:25;;;;;;;0.33;0.20;;;;;;;6.67;94.81;93687.69;4373535;32;20279;-60
2022/11/17 04:05:06;;;;;;;0.00;0.00;;;;;;;6.93;94.29;93683.19;4371411;32;20276;-60
2022/11/17 04:07:40;;;;;;;0.00;0.00;;;;;;;6.80;94.20;93674.37;4364861;32;20185;-60
2022/11/17 04:10:07;;;;;;;0.10;0.10;;;;;;;6.88;94.03;93664.91;4381751;32;20273;-60
2022/11/17 04:18:01;;;;;;;0.30;0.30;;;;;;;7.03;93.68;93656.53;4365963;32;20347;-60
2022/11/17 04:20:34;;;;;;;0.00;0.00;;;;;;;7.04;93.67;93647.53;4373183;32;20288;-60
2022/11/17 04:23:12;;;;;;;0.17;0.17;;;;;;;7.15;92.97;93646.13;4383717;32;20241;-60
2022/11/17 04:28:35;;;;;;;0.10;0.10;;;;;;;7.30;92.33;93650.13;4371513;32;20291;-60
2022/11/17 04:31:02;;;;;;;0.10;0.10;;;;;;;7.06;92.67;93655.91;4368582;32;20299;-61
2022/11/17 04:33:27;;;;;;;0.00;0.00;;;;;;;7.29;92.36;93653.84;4383894;32;20284;-61
2022/11/17 04:35:53;;;;;;;0.20;0.20;;;;;;;7.20;92.26;93653.09;4381741;32;20351;-61
2022/11/17 04:38:18;;;;;;;0.47;0.37;;;;;;;7.10;92.91;93646.28;4375096;32;20256;-61
2022/11/17 04:41:52;;;;;;;0.00;0.00;;;;;;;7.25;92.76;93647.66;4368489;32;20255;-61
2022/11/17 04:43:29;;;;;;;0.20;0.20;;;;;;;7.07;92.46;93652.16;4371248;32;20303;-61
2022/11/17 04:46:00;;;;;;;0.20;0.20;;;;;;;7.08;92.77;93663.50;4380649;32;20276;-60
2022/11/17 04:48:26;;;;;;;0.00;0.00;;;;;;;7.18;92.99;93653.41;4379199;32;20184;-61
2022/11/17 04:50:55;;;;;;;0.33;0.33;;;;;;;7.13;92.93;93648.28;4361974;32;20325;-60
2022/11/17 04:53:22;;;;;;;0.30;0.30;;;;;;;7.08;93.21;93642.41;4384284;32;20280;-60
2022/11/17 04:55:47;;;;;;;0.00;0.00;;;;;;;7.05;93.71;93637.78;4381230;32;20349;-60
2022/11/17 04:58:13;;;;;;;0.00;0.00;;;;;;;7.18;93.22;93640.22;4367948;32;20271;-60
2022/11/17 05:00:38;;;;;;;0.03;0.03;;;;;;;7.21;92.51;93647.50;4374697;32;20189;-61
2022/11/17 05:03:03;;;;;;;0.20;0.20;;;;;;;7.20;92.70;93638.06;4372082;32;20234;-61
2022/11/17 05:05:29;;;;;;;0.20;0.20;;;;;;;7.26;92.44;93640.53;4385644;32;20193;-60
2022/11/17 05:07:54;;;;;;;0.00;0.00;;;;;;;7.23;92.26;93634.00;4374278;32;20185;-60
2022/11/17 05:13:20;;;;;;;0.10;0.10;;;;;;;7.40;92.14;93628.69;4386029;32;20195;-60
2022/11/17 05:13:21;;;;;;;0.40;0.27;;;;;;;7.34;92.13;93622.03;4368856;32;20196;-61
2022/11/17 05:18:42;;;;;;;0.10;0.10;;;;;;;7.54;90.91;93633.75;4378049;32;20310;-60
2022/11/17 05:21:10;;;;;;;0.20;0.17;;;;;;;7.07;92.62;93641.63;4376465;32;20295;-61
2022/11/17 05:23:55;;;;;;;0.10;0.10;;;;;;;7.10;93.15;93646.28;4386078;32;20290;-61
2022/11/17 05:26:24;;;;;;;0.20;0.20;;;;;;;7.31;92.35;93654.31;4380528;32;20329;-61
2022/11/17 05:28:49;;;;;;;0.00;0.00;;;;;;;7.32;92.50;93660.34;4388143;32;20307;-61
2022/11/17 05:31:15;;;;;;;0.10;0.10;;;;;;;7.35;92.54;93662.38;4384284;32;20277;-60
2022/11/17 05:33:41;;;;;;;0.00;0.00;;;;;;;7.63;91.40;93655.62;4364272;32;20182;-61
2022/11/17 05:36:07;;;;;;;0.23;0.23;;;;;;;7.82;90.18;93671.09;4376594;32;20188;-61
2022/11/17 05:38:33;;;;;;;0.10;0.10;;;;;;;7.54;90.84;93671.47;4367745;32;20181;-62
2022/11/17 05:40:59;;;;;;;0.10;0.10;;;;;;;7.63;90.73;93683.88;4366996;32;20322;-61
2022/11/17 05:43:24;;;;;;;0.20;0.20;;;;;;;7.78;90.04;93702.63;4376694;32;20244;-61
2022/11/17 05:45:49;;;;;;;0.10;0.10;;;;;;;7.90;89.62;93710.66;4370532;32;20292;-61
2022/11/17 05:48:15;;;;;;;0.47;0.27;;;;;;;7.98;89.62;93726.78;4375800;32;20200;-62
2022/11/17 05:50:40;;;;;;;0.10;0.10;;;;;;;7.66;90.87;93728.91;4383659;32;20195;-61
2022/11/17 05:53:06;;;;;;;0.20;0.20;;;;;;;7.63;91.66;93720.84;4384931;32;20201;-61
2022/11/17 05:55:32;;;;;;;0.40;0.40;;;;;;;7.59;91.97;93710.12;4386571;32;20181;-61
2022/11/17 05:58:27;;;;;;;0.30;0.30;;;;;;;7.67;91.47;93717.25;4391792;32;20193;-62
2022/11/17 06:00:56;;;;;;;0.13;0.13;;;;;;;7.50;91.83;93723.31;4378691;32;20272;-61
2022/11/17 06:03:36;;;;;;;1.07;0.43;;;;;;;7.55;92.61;93725.81;4358353;32;20338;-61
2022/11/17 06:06:03;;;;;;;0.33;0.20;;;;;;;7.66;92.34;93725.47;4363469;32;20276;-61
2022/11/17 06:08:30;;;;;;;0.40;0.40;;;;;;;7.51;92.79;93729.38;4373023;32;20283;-61
2022/11/17 06:10:58;;;;;;;0.27;0.27;;;;;;;7.53;93.54;93746.44;4374609;32;20329;-62
2022/11/17 06:13:27;;;;;;;0.50;0.40;;;;;;;7.58;94.02;93746.28;4378467;32;20348;-61
2022/11/17 06:15:58;;;;;;;0.13;0.13;;;;;;;7.33;94.70;93738.41;4368563;32;20335;-62
2022/11/17 06:18:38;;;;;;;0.03;0.03;;;;;;;7.47;95.13;93737.16;4367358;32;20371;-61
2022/11/17 06:21:09;;;;;;;0.53;0.53;;;;;;;7.46;95.76;93740.88;4384151;32;20355;-62
2022/11/17 06:23:41;;;;;;;0.63;0.57;;;;;;;7.74;95.36;93743.16;4365101;32;20298;-62
2022/11/17 06:26:14;;;;;;;0.40;0.40;;;;;;;7.71;94.92;93738.50;4375625;32;20275;-63
2022/11/17 06:28:51;;;;;;;0.20;0.20;;;;;;;7.67;94.77;93732.31;4349586;32;20276;-61
2022/11/17 06:31:19;;;;;;;0.20;0.20;;;;;;;7.78;94.19;93728.25;4369352;32;20327;-62
2022/11/17 06:33:48;;;;;;;0.13;0.13;;;;;;;7.68;95.08;93715.41;4361689;32;20289;-62
2022/11/17 06:36:15;;;;;;;0.50;0.50;;;;;;;7.69;95.15;93715.06;4373953;32;20323;-61
2022/11/17 06:38:41;;;;;;;0.23;0.23;;;;;;;7.74;95.69;93693.78;4368052;32;20284;-62
2022/11/17 06:41:10;;;;;;;0.40;0.40;;;;;;;7.72;95.54;93697.81;4377386;32;20304;-62
2022/11/17 06:43:37;;;;;;;0.00;0.00;;;;;;;7.62;96.05;93693.66;4373615;32;20287;-62
2022/11/17 06:46:05;;;;;;;0.30;0.30;;;;;;;7.76;96.02;93675.75;4346210;32;20307;-61
2022/11/17 06:48:34;;;;;;;0.30;0.30;;;;;;;7.89;94.79;93666.87;4388335;32;20300;-62
2022/11/17 06:51:03;;;;;;;0.30;0.30;;;;;;;7.93;94.21;93669.63;4353056;32;20280;-61
2022/11/17 06:53:33;;;;;;;0.40;0.40;;;;;;;8.12;94.42;93683.22;4380083;32;20284;-61
2022/11/17 06:56:10;;;;;;;0.53;0.53;;;;;;;7.96;94.79;93690.13;4357685;32;20316;-61
2022/11/17 06:58:38;;;;;;;0.10;0.10;;;;;;;7.97;95.43;93693.56;4374216;32;20287;-62
2022/11/17 07:01:21;;;;;;;0.30;0.30;;;;;;;7.91;95.52;93706.91;4373945;32;20295;-62
2022/11/17 07:03:46;;;;;;;0.40;0.40;;;;;;;7.85;95.84;93697.63;4377648;32;20288;-62
2022/11/17 07:06:14;;;;;;;0.13;0.13;;;;;;;8.06;95.22;93733.91;4374411;32;20390;-61
2022/11/17 07:08:41;;;;;;;0.10;0.10;;;;;;;8.06;95.21;93736.56;4355281;32;20193;-61
2022/11/17 07:11:09;;;;;;;0.07;0.07;;;;;;;8.04;95.56;93726.31;4346682;32;20296;-62
2022/11/17 07:13:35;;;;;;;0.13;0.13;;;;;;;7.86;96.05;93715.03;4336356;32;20180;-61
2022/11/17 07:16:06;;;;;;;0.20;0.20;;;;;;;7.85;95.91;93710.06;4373937;32;20284;-61
2022/11/17 07:18:33;;;;;;;0.93;0.93;;;;;;;8.10;95.26;93709.19;4378089;32;20290;-62
2022/11/17 07:21:01;;;;;;;0.50;0.50;;;;;;;8.30;94.17;93712.22;4375156;32;20276;-61
2022/11/17 07:23:27;;;;;;;0.23;0.23;;;;;;;8.05;95.64;93733.13;4381398;32;20276;-61
2022/11/17 07:25:55;;;;;;;0.20;0.20;;;;;;;8.13;95.63;93744.75;4355167;32;21155;-61
2022/11/17 07:28:21;;;;;;;0.53;0.53;;;;;;;8.01;96.26;93758.63;4382365;32;20212;-61
2022/11/17 07:30:46;;;;;;;0.20;0.20;;;;;;;8.22;96.29;93733.06;4381398;32;20290;-61
2022/11/17 07:33:11;;;;;;;0.33;0.33;;;;;;;8.17;96.65;93729.81;4377055;32;20331;-61
2022/11/17 07:35:36;;;;;;;0.20;0.20;;;;;;;8.38;95.65;93729.91;4380685;32;20191;-62
2022/11/17 07:38:02;;;;;;;0.60;0.60;;;;;;;8.29;96.23;93735.22;4382007;32;20196;-61
2022/11/17 07:40:29;;;;;;;0.83;0.83;;;;;;;8.49;95.22;93739.81;4385383;32;20196;-61
2022/11/17 07:42:54;;;;;;;1.10;1.00;;;;;;;8.46;95.14;93739.69;4369418;32;20230;-61
2022/11/17 07:45:21;;;;;;;0.30;0.30;;;;;;;8.51;95.47;93750.06;4374240;32;20294;-62
2022/11/17 07:47:58;;;;;;;0.13;0.13;;;;;;;8.57;95.23;93759.34;4371436;32;20189;-61
2022/11/17 07:50:25;;;;;;;0.23;0.23;;;;;;;8.63;95.30;93757.31;4386881;32;23112;-61
2022/11/17 07:52:55;;;;;;;0.60;0.60;;;;;;;8.80;95.16;93757.22;4361191;32;20268;-61
2022/11/17 07:55:25;;;;;;;1.07;0.97;;;;;;;8.69;94.89;93740.19;4376983;32;20303;-62
2022/11/17 07:57:57;;;;;;;0.67;0.53;;;;;;;9.13;97.87;93733.50;4355128;32;20284;-62
2022/11/17 08:00:24;;;;;;;6.80;1.03;;;;;;;9.77;99.19;93738.41;4352550;32;20311;-62
2022/11/17 08:02:50;;;;;;;0.30;0.30;;;;;;;10.26;97.28;93758.63;4353873;32;20189;-60
2022/11/17 08:05:17;;;;;;;1.00;0.90;;;;;;;9.87;92.60;93754.66;4346325;32;20222;-61
2022/11/17 08:07:44;;;;;;;0.43;0.43;;;;;;;9.70;91.24;93746.09;4346409;32;20192;-60
2022/11/17 08:10:12;;;;;;;0.27;0.27;;;;;;;9.58;90.48;93746.81;4364250;32;20261;-61
2022/11/17 08:12:39;;;;;;;0.10;0.10;;;;;;;9.70;90.93;93752.16;4372276;32;20204;-61
2022/11/17 08:15:10;;;;;;;0.10;0.10;;;;;;;9.86;89.79;93762.91;4381335;32;20207;-62
2022/11/17 08:17:38;;;;;;;0.67;0.30;;;;;;;9.54;90.80;93759.19;4349186;32;20192;-63
2022/11/17 08:20:06;;;;;;;0.37;0.37;;;;;;;9.71;91.10;93774.91;4367922;32;20239;-61
2022/11/17 08:22:31;;;;;;;1.00;0.70;;;;;;;9.78;90.04;93782.31;4371662;32;20197;-60
2022/11/17 08:24:58;;;;;;;0.30;0.30;;;;;;;9.75;90.81;93780.31;4374469;32;20188;-62
2022/11/17 08:27:26;;;;;;;0.40;0.40;;;;;;;9.85;90.66;93782.56;4358242;32;20287;-62
2022/11/17 08:29:51;;;;;;;0.27;0.27;;;;;;;9.91;90.02;93805.88;4356006;32;20204;-62
2022/11/17 08:32:18;;;;;;;0.37;0.37;;;;;;;9.82;90.00;93817.63;4379129;32;20244;-62
2022/11/17 08:34:44;;;;;;;0.87;0.87;;;;;;;9.72;90.82;93813.53;4348737;32;20200;-62
2022/11/17 08:37:11;;;;;;;0.27;0.27;;;;;;;9.65;91.54;93819.34;4383947;32;20180;-62
2022/11/17 08:39:40;;;;;;;0.67;0.67;;;;;;;9.93;91.98;93818.78;4368048;32;20192;-60
2022/11/17 08:42:10;;;;;;;0.50;0.50;;;;;;;9.96;90.78;93836.69;4362926;32;20184;-63
2022/11/17 08:44:35;;;;;;;0.40;0.40;;;;;;;9.93;90.26;93818.78;4360006;32;20196;-62
2022/11/17 08:47:00;;;;;;;0.30;0.30;;;;;;;9.82;90.34;93794.56;4380230;32;20218;-63
2022/11/17 08:49:27;;;;;;;0.60;0.60;;;;;;;9.88;90.35;93782.69;4356091;32;20203;-62
2022/11/17 08:51:52;;;;;;;0.53;0.53;;;;;;;9.69;90.84;93778.97;4357616;32;20224;-60
2022/11/17 08:54:22;;;;;;;0.80;0.80;;;;;;;9.57;91.57;93769.88;4365001;32;20226;-63
2022/11/17 08:56:47;;;;;;;1.17;0.83;;;;;;;9.52;91.72;93758.72;4372355;32;20234;-62
2022/11/17 08:59:14;;;;;;;1.40;1.30;;;;;;;9.82;91.09;93744.25;4367686;32;20185;-60
2022/11/17 09:01:41;;;;;;;1.37;1.33;;;;;;;9.84;90.63;93747.34;4354835;32;20188;-62
2022/11/17 09:04:06;;;;;;;1.33;1.33;;;;;;;9.82;91.84;93740.81;4335779;32;20231;-62
2022/11/17 09:06:33;;;;;;;1.13;0.83;;;;;;;9.99;91.87;93733.47;4336509;32;20196;-61
2022/11/17 09:08:58;;;;;;;1.00;0.80;;;;;;;10.18;90.90;93730.34;4360282;32;20224;-61
2022/11/17 09:11:24;;;;;;;0.93;0.93;;;;;;;10.31;90.31;93737.22;4378757;32;20199;-61
2022/11/17 09:13:52;;;;;;;1.47;1.20;;;;;;;10.26;90.97;93736.66;4372243;32;20184;-61
2022/11/17 09:16:18;;;;;;;0.47;0.47;;;;;;;10.27;91.97;93738.19;4372327;32;20291;-61
2022/11/17 09:18:45;;;;;;;0.73;0.73;;;;;;;10.18;92.90;93738.28;4354282;32;20197;-61
2022/11/17 09:21:15;;;;;;;0.47;0.47;;;;;;;10.31;92.90;93729.25;4371422;32;20176;-59
2022/11/17 09:23:42;;;;;;;0.83;0.83;;;;;;;10.29;93.58;93746.59;4365749;32;20185;-60
2022/11/17 09:26:17;;;;;;;0.57;0.57;;;;;;;10.45;93.37;93741.41;4319505;32;20189;-59
2022/11/17 09:28:50;;;;;;;2.47;0.67;;;;;;;10.44;93.11;93737.22;4349811;32;20234;-59
2022/11/17 09:31:19;;;;;;;0.30;0.30;;;;;;;10.56;93.14;93745.19;4356473;32;20184;-58
2022/11/17 09:33:46;;;;;;;0.37;0.37;;;;;;;10.65;92.65;93749.25;4366773;32;20216;-58
2022/11/17 09:36:13;;;;;;;0.80;0.67;;;;;;;10.68;92.59;93747.81;4360441;32;20254;-58
2022/11/17 09:38:39;;;;;;;0.70;0.70;;;;;;;10.62;93.06;93738.53;4355329;32;20189;-60
2022/11/17 09:41:39;;;;;;;0.43;0.43;;;;;;;10.69;92.30;93754.66;4361523;32;20196;-60
2022/11/17 09:44:28;;;;;;;0.30;0.30;;;;;;;10.61;92.40;93736.97;4309358;32;20189;-60
2022/11/17 09:47:11;;;;;;;0.30;0.30;;;;;;;10.57;92.80;93742.19;4373426;32;20275;-60
2022/11/17 09:49:48;;;;;;;0.20;0.20;;;;;;;10.62;93.17;93733.22;4360482;32;20207;-59
2022/11/17 09:52:47;;;;;;;0.43;0.43;;;;;;;10.89;91.91;93742.38;4375253;32;20184;-60
2022/11/17 09:55:38;;;;;;;0.90;0.53;;;;;;;11.03;91.51;93738.25;4371464;32;20309;-61
2022/11/17 09:58:41;;;;;;;0.30;0.30;;;;;;;11.19;90.10;93745.56;4358665;32;20192;-61
2022/11/17 10:01:17;;;;;;;0.57;0.57;;;;;;;11.32;90.41;93747.06;4367368;32;20192;-61
2022/11/17 10:03:46;;;;;;;1.80;0.50;;;;;;;11.35;89.66;93731.22;4371443;32;20284;-61
2022/11/17 10:06:25;;;;;;;0.20;0.20;;;;;;;11.35;89.37;93735.78;4351676;32;20192;-60
2022/11/17 10:09:08;;;;;;;0.20;0.20;;;;;;;11.48;89.20;93739.91;4361037;32;20223;-61
2022/11/17 10:11:38;;;;;;;0.60;0.60;;;;;;;11.74;88.63;93744.03;4374458;32;20200;-60
2022/11/17 10:14:16;;;;;;;0.80;0.80;;;;;;;11.77;87.85;93736.19;4374584;32;20186;-60
2022/11/17 10:16:55;;;;;;;0.67;0.67;;;;;;;11.77;87.17;93743.37;4361846;32;20194;-61
2022/11/17 10:19:30;;;;;;;0.73;0.73;;;;;;;12.04;86.54;93739.94;4364993;32;20183;-60
2022/11/17 10:22:18;;;;;;;0.60;0.60;;;;;;;12.12;86.37;93743.53;4369260;32;20224;-59
2022/11/17 10:24:50;;;;;;;0.20;0.20;;;;;;;12.29;86.84;93743.19;4374014;32;20227;-59
2022/11/17 10:27:34;;;;;;;0.50;0.47;;;;;;;12.32;85.34;93745.19;4376330;32;20223;-61
2022/11/17 10:30:13;;;;;;;0.20;0.20;;;;;;;12.95;85.84;93740.56;4373038;32;20223;-62
2022/11/17 10:33:03;;;;;;;0.20;0.20;;;;;;;13.51;83.90;93739.50;4372211;32;20266;-60
2022/11/17 10:35:35;;;;;;;0.40;0.40;;;;;;;13.18;79.25;93740.72;4356279;32;20207;-60
2022/11/17 10:38:28;;;;;;;0.10;0.10;;;;;;;12.97;79.96;93741.00;4326403;32;20188;-59
2022/11/17 10:40:57;;;;;;;0.10;0.10;;;;;;;12.97;82.12;93748.22;4360324;32;20345;-60
2022/11/17 10:43:41;;;;;;;0.47;0.47;;;;;;;13.00;81.62;93739.53;4380458;32;20264;-60
2022/11/17 10:46:14;;;;;;;0.20;0.20;;;;;;;12.89;81.06;93744.63;4342235;32;20193;-61
2022/11/17 10:49:03;;;;;;;0.37;0.37;;;;;;;12.90;83.25;93734.75;4351272;32;20204;-61
2022/11/17 10:51:34;;;;;;;2.03;0.33;;;;;;;13.07;82.92;93745.81;4352186;32;20219;-62
2022/11/17 10:54:20;;;;;;;0.17;0.17;;;;;;;13.01;81.35;93735.75;4372931;32;20252;-63
2022/11/17 10:56:53;;;;;;;0.23;0.23;;;;;;;13.10;80.53;93736.34;4352944;32;20238;-63
2022/11/17 10:59:40;;;;;;;0.37;0.37;;;;;;;13.00;81.73;93732.34;4320212;32;20200;-60
2022/11/17 11:02:39;;;;;;;0.27;0.27;;;;;;;12.81;81.48;93736.84;4370705;32;20189;-61
2022/11/17 11:05:26;;;;;;;0.77;0.30;;;;;;;12.67;83.42;93730.09;4314169;33;20201;-60
2022/11/17 11:08:16;;;;;;;0.10;0.10;;;;;;;12.80;83.22;93740.62;4270115;32;20247;-59
2022/11/17 11:10:45;;;;;;;0.40;0.40;;;;;;;12.70;83.12;93732.03;4371144;32;20215;-59
2022/11/17 11:13:32;;;;;;;0.20;0.20;;;;;;;12.83;81.72;93738.03;4363926;32;20241;-59
2022/11/17 11:15:58;;;;;;;0.20;0.20;;;;;;;12.82;83.92;93728.50;4361509;32;20247;-59
2022/11/17 11:18:29;;;;;;;0.83;0.40;;;;;;;12.82;83.95;93735.72;4360516;32;20291;-60
2022/11/17 11:22:04;;;;;;;0.10;0.10;;;;;;;12.73;84.20;93730.56;4364358;32;20291;-59
2022/11/17 11:25:09;;;;;;;0.10;0.10;;;;;;;12.77;83.94;93733.31;4259925;33;20260;-59
2022/11/17 11:28:14;;;;;;;1.33;0.87;;;;;;;12.89;83.61;93735.84;4319505;32;20232;-60
2022/11/17 11:31:18;;;;;;;0.20;0.20;;;;;;;12.93;84.22;93734.81;4359743;32;20240;-60
2022/11/17 11:34:05;;;;;;;0.30;0.30;;;;;;;12.95;83.71;93742.47;4384532;32;20184;-59
2022/11/17 11:36:58;;;;;;;0.20;0.20;;;;;;;12.90;82.39;93742.72;4332449;32;20188;-59
2022/11/17 11:40:00;;;;;;;0.20;0.10;;;;;;;13.04;81.34;93751.06;4312765;32;20182;-59
2022/11/17 11:42:49;;;;;;;0.27;0.27;;;;;;;13.02;81.61;93758.59;4374904;32;20188;-59
2022/11/17 11:46:04;;;;;;;0.30;0.30;;;;;;;13.05;82.30;93773.91;4332303;32;20189;-59
2022/11/17 11:48:35;;;;;;;0.40;0.40;;;;;;;13.00;81.92;93760.84;4335119;32;20266;-59
2022/11/17 11:51:08;;;;;;;0.10;0.10;;;;;;;12.92;81.59;93765.22;4370759;32;20204;-59
2022/11/17 11:53:51;;;;;;;0.50;0.50;;;;;;;13.12;80.50;93762.59;4350252;32;20188;-59
2022/11/17 11:56:41;;;;;;;0.80;0.57;;;;;;;13.09;80.89;93759.50;4358542;32;20185;-60
2022/11/17 11:59:49;;;;;;;0.50;0.50;;;;;;;12.98;81.26;93747.88;4354572;32;20217;-60
2022/11/17 12:02:48;;;;;;;0.10;0.10;;;;;;;12.86;83.22;93745.34;4381080;32;20226;-60
2022/11/17 12:05:38;;;;;;;0.53;0.53;;;;;;;12.79;82.84;93739.06;4373822;32;20232;-62
2022/11/17 12:08:41;;;;;;;0.40;0.33;;;;;;;12.97;83.43;93735.69;4374640;32;20184;-60
2022/11/17 12:14:15;;;;;;;0.33;0.33;;;;;;;13.03;82.87;93744.94;4347034;32;20206;-62
2022/11/17 12:16:43;;;;;;;0.30;0.30;;;;;;;12.75;83.55;93741.66;4357003;32;20227;-61
2022/11/17 12:19:49;;;;;;;0.30;0.30;;;;;;;12.89;82.92;93760.59;4375836;32;20234;-61
2022/11/17 12:22:36;;;;;;;0.30;0.30;;;;;;;12.99;82.36;93752.09;4372948;32;20225;-61
2022/11/17 12:25:34;;;;;;;0.20;0.20;;;;;;;13.05;81.31;93745.38;4364575;32;20252;-61
2022/11/17 12:28:40;;;;;;;0.13;0.13;;;;;;;12.72;81.96;93745.75;4364306;32;20230;-61
2022/11/17 12:31:29;;;;;;;1.50;0.70;;;;;;;12.60;81.45;93751.19;4294306;33;20191;-61
2022/11/17 12:34:06;;;;;;;0.30;0.30;;;;;;;12.60;80.90;93763.72;4277496;33;20263;-61
2022/11/17 12:36:35;;;;;;;0.40;0.40;;;;;;;12.68;79.61;93754.78;4288370;33;20230;-61